Time;durP1;ratioP1;P1;durP2;ratioP2;P2;SDS_P1;SDS_P2;PMS_P1;PMS_P2;Temp;Humidity;BMP_temperature;BMP_pressure;BME280_temperature;BME280_humidity;BME280_pressure;Samples;Min_cycle;Max_cycle;Signal;HPM_P1;HPM_P2
2022/11/14 00:00:33;;;;;;;50.97;28.35;;;;;;;3.08;100.00;101608.59;1042706;28;20894;-81
2022/11/14 00:01:23;;;;;;;57.53;29.40;;;;;;;3.11;100.00;101612.72;1048488;28;20906;-81
2022/11/14 00:02:14;;;;;;;55.72;29.38;;;;;;;3.11;100.00;101602.19;1045207;28;20059;-81
2022/11/14 00:03:07;;;;;;;59.85;30.63;;;;;;;3.13;100.00;101609.94;1038676;28;20393;-81
2022/11/14 00:03:57;;;;;;;55.08;27.73;;;;;;;3.15;100.00;101614.06;1038988;28;20747;-81
2022/11/14 00:04:47;;;;;;;56.05;31.30;;;;;;;3.17;100.00;101606.84;1037954;28;20307;-82
2022/11/14 00:05:42;;;;;;;61.42;33.42;;;;;;;3.16;100.00;101604.38;1037954;28;20315;-81
2022/11/14 00:06:32;;;;;;;58.60;31.80;;;;;;;3.18;100.00;101603.25;1040623;28;20574;-82
2022/11/14 00:07:22;;;;;;;54.97;28.58;;;;;;;3.16;100.00;101601.75;1044280;28;20310;-82
2022/11/14 00:08:18;;;;;;;53.92;30.15;;;;;;;3.19;100.00;101602.28;1042816;28;20951;-82
2022/11/14 00:09:08;;;;;;;56.28;30.95;;;;;;;3.19;100.00;101599.63;1040681;28;20958;-82
2022/11/14 00:09:59;;;;;;;57.05;32.88;;;;;;;3.16;100.00;101594.69;1046276;28;20413;-82
2022/11/14 00:10:50;;;;;;;58.03;32.28;;;;;;;3.13;100.00;101589.72;1044698;28;20307;-82
2022/11/14 00:11:40;;;;;;;52.80;29.58;;;;;;;3.08;100.00;101597.22;1038062;28;20434;-82
2022/11/14 00:12:30;;;;;;;66.57;34.70;;;;;;;3.05;100.00;101594.91;1044014;28;20474;-82
2022/11/14 00:13:20;;;;;;;58.60;28.88;;;;;;;3.09;100.00;101598.88;1041876;28;20335;-82
2022/11/14 00:14:10;;;;;;;51.10;29.08;;;;;;;3.12;100.00;101597.75;1039608;28;20299;-82
2022/11/14 00:15:00;;;;;;;63.83;34.65;;;;;;;3.14;100.00;101593.16;1039907;28;20295;-82
2022/11/14 00:15:54;;;;;;;59.92;30.88;;;;;;;3.09;100.00;101588.34;1039768;28;20658;-82
2022/11/14 00:16:44;;;;;;;63.60;32.33;;;;;;;3.11;100.00;101594.31;1044701;28;20697;-82
2022/11/14 00:17:34;;;;;;;54.20;28.17;;;;;;;3.09;100.00;101588.34;1044096;28;20283;-81
2022/11/14 00:18:24;;;;;;;60.03;29.55;;;;;;;3.00;100.00;101583.97;1048078;28;20339;-82
2022/11/14 00:19:14;;;;;;;60.53;32.72;;;;;;;3.06;100.00;101588.66;1049242;28;20294;-81
2022/11/14 00:20:07;;;;;;;62.45;31.40;;;;;;;3.09;100.00;101577.84;1044737;28;20306;-82
2022/11/14 00:20:58;;;;;;;59.92;28.70;;;;;;;3.04;100.00;101582.72;1048814;28;20686;-82
2022/11/14 00:21:47;;;;;;;64.32;31.88;;;;;;;3.08;100.00;101584.06;1046336;28;20336;-82
2022/11/14 00:22:38;;;;;;;64.15;31.08;;;;;;;3.11;100.00;101581.13;1044885;28;20116;-81
2022/11/14 00:23:28;;;;;;;59.00;29.45;;;;;;;3.08;100.00;101581.44;1047003;28;20278;-81
2022/11/14 00:24:19;;;;;;;54.95;28.58;;;;;;;3.08;100.00;101578.81;1047237;28;20719;-82
2022/11/14 00:25:09;;;;;;;75.38;35.50;;;;;;;3.04;100.00;101580.09;1044711;28;20056;-81
2022/11/14 00:25:59;;;;;;;57.78;30.52;;;;;;;3.04;100.00;101577.47;1036192;28;20045;-81
2022/11/14 00:26:49;;;;;;;55.47;32.42;;;;;;;3.00;100.00;101578.69;1041777;28;20880;-81
2022/11/14 00:27:40;;;;;;;67.55;35.00;;;;;;;3.02;100.00;101579.41;1052292;28;20356;-81
2022/11/14 00:28:30;;;;;;;61.88;31.17;;;;;;;3.02;100.00;101582.03;1049314;28;20052;-82
2022/11/14 00:29:20;;;;;;;63.78;32.38;;;;;;;3.09;100.00;101572.56;1044166;28;20306;-81
2022/11/14 00:30:10;;;;;;;59.05;31.20;;;;;;;3.06;100.00;101580.75;1043250;28;20772;-81
2022/11/14 00:31:00;;;;;;;65.18;33.33;;;;;;;3.08;100.00;101576.19;1047118;28;20908;-81
2022/11/14 00:31:51;;;;;;;63.58;31.92;;;;;;;3.01;100.00;101575.09;1044794;28;20513;-81
2022/11/14 00:32:41;;;;;;;57.53;30.55;;;;;;;3.00;100.00;101574.25;1046000;28;20105;-82
2022/11/14 00:33:31;;;;;;;55.75;30.08;;;;;;;3.04;100.00;101575.66;1042518;28;20411;-82
2022/11/14 00:34:21;;;;;;;68.63;32.03;;;;;;;3.03;100.00;101571.38;1036870;28;20416;-82
2022/11/14 00:35:11;;;;;;;56.80;29.92;;;;;;;3.03;100.00;101568.72;1034624;28;20867;-81
2022/11/14 00:36:03;;;;;;;55.03;30.15;;;;;;;2.98;100.00;101565.69;1040252;28;20291;-81
2022/11/14 00:36:53;;;;;;;58.15;30.40;;;;;;;2.90;100.00;101563.00;1044221;28;20815;-82
2022/11/14 00:37:43;;;;;;;61.05;31.92;;;;;;;2.95;100.00;101560.72;1040930;28;20345;-82
2022/11/14 00:38:33;;;;;;;58.80;28.98;;;;;;;2.96;100.00;101567.66;1042273;28;20386;-82
2022/11/14 00:39:23;;;;;;;65.60;30.08;;;;;;;2.93;100.00;101559.22;1041599;28;20343;-82
2022/11/14 00:40:16;;;;;;;53.88;29.27;;;;;;;2.98;100.00;101562.25;1042277;28;20649;-81
2022/11/14 00:41:06;;;;;;;59.85;29.98;;;;;;;2.94;100.00;101558.25;1044554;28;20290;-82
2022/11/14 00:41:56;;;;;;;63.03;31.95;;;;;;;2.90;100.00;101562.16;1045825;28;20433;-82
2022/11/14 00:42:46;;;;;;;64.40;31.10;;;;;;;2.85;100.00;101559.16;1041823;28;20359;-81
2022/11/14 00:43:36;;;;;;;55.50;29.90;;;;;;;2.77;100.00;101559.91;1046355;28;20344;-82
2022/11/14 00:44:26;;;;;;;66.78;30.52;;;;;;;2.81;100.00;101558.63;1043696;28;20345;-81
2022/11/14 00:45:16;;;;;;;63.80;33.22;;;;;;;2.80;100.00;101543.81;1043594;28;20315;-82
2022/11/14 00:46:06;;;;;;;55.47;31.42;;;;;;;2.81;100.00;101542.00;1043127;28;20387;-82
2022/11/14 00:46:56;;;;;;;53.45;30.08;;;;;;;2.82;100.00;101551.56;1046663;28;20325;-82
2022/11/14 00:47:45;;;;;;;68.80;31.83;;;;;;;2.81;100.00;101547.28;1043907;28;20333;-82
2022/11/14 00:48:35;;;;;;;64.22;31.17;;;;;;;2.81;100.00;101545.47;1047527;28;20294;-81
2022/11/14 00:49:25;;;;;;;63.88;29.98;;;;;;;2.81;100.00;101542.00;1047748;28;20286;-81
2022/11/14 00:50:16;;;;;;;53.88;31.10;;;;;;;2.81;100.00;101542.84;1044004;28;20331;-82
2022/11/14 00:51:06;;;;;;;67.10;31.10;;;;;;;2.90;100.00;101546.38;1041086;28;20367;-82
2022/11/14 00:51:56;;;;;;;57.15;27.10;;;;;;;2.91;100.00;101542.75;1038940;28;20099;-82
2022/11/14 00:52:46;;;;;;;59.38;32.20;;;;;;;2.88;100.00;101543.06;1037572;28;20163;-81
2022/11/14 00:53:37;;;;;;;55.85;30.63;;;;;;;2.79;100.00;101550.88;1039102;28;20728;-82
2022/11/14 00:54:27;;;;;;;61.08;28.30;;;;;;;2.79;100.00;101536.91;1042510;28;20358;-81
2022/11/14 00:55:17;;;;;;;57.53;26.77;;;;;;;2.90;100.00;101539.31;1038001;28;20514;-82
2022/11/14 00:56:07;;;;;;;63.33;32.03;;;;;;;2.88;100.00;101535.16;1039671;28;20292;-82
2022/11/14 00:56:57;;;;;;;60.10;28.58;;;;;;;2.84;100.00;101525.94;1043242;28;20902;-82
2022/11/14 00:57:47;;;;;;;64.80;30.38;;;;;;;2.83;100.00;101533.00;1041094;28;20335;-82
2022/11/14 00:58:37;;;;;;;58.78;30.67;;;;;;;2.75;100.00;101527.66;1039755;28;20343;-82
2022/11/14 00:59:27;;;;;;;63.95;33.88;;;;;;;2.75;100.00;101523.22;1043667;28;20291;-82
2022/11/14 01:00:17;;;;;;;59.38;29.38;;;;;;;2.78;100.00;101525.56;1046659;28;20298;-82
2022/11/14 01:01:07;;;;;;;68.10;32.55;;;;;;;2.69;100.00;101529.06;1047839;28;20294;-82
2022/11/14 01:01:57;;;;;;;56.17;30.15;;;;;;;2.72;100.00;101523.50;1047765;28;20367;-82
2022/11/14 01:02:47;;;;;;;65.28;30.75;;;;;;;2.75;100.00;101525.03;1045699;28;20082;-82
2022/11/14 01:03:38;;;;;;;66.90;33.80;;;;;;;2.74;100.00;101518.94;1045210;28;20719;-82
2022/11/14 01:04:28;;;;;;;67.80;32.92;;;;;;;2.69;100.00;101523.78;1048556;28;20290;-82
2022/11/14 01:05:18;;;;;;;62.67;31.23;;;;;;;2.70;100.00;101525.44;1048225;28;20060;-82
2022/11/14 01:06:10;;;;;;;53.55;28.05;;;;;;;2.79;100.00;101524.56;1042451;28;20437;-82
2022/11/14 01:07:00;;;;;;;62.08;30.05;;;;;;;2.84;100.00;101518.03;1045728;28;20699;-82
2022/11/14 01:07:51;;;;;;;55.55;28.48;;;;;;;2.88;100.00;101516.75;1048506;28;20628;-81
2022/11/14 01:08:41;;;;;;;58.40;30.10;;;;;;;2.83;100.00;101513.75;1045321;28;20313;-82
2022/11/14 01:09:31;;;;;;;62.00;30.80;;;;;;;2.83;100.00;101519.00;1042016;28;20402;-82
2022/11/14 01:10:22;;;;;;;56.50;30.60;;;;;;;2.75;100.00;101517.97;1044560;28;20053;-81
2022/11/14 01:11:16;;;;;;;61.83;33.13;;;;;;;2.75;100.00;101517.97;1041116;28;20124;-82
2022/11/14 01:12:06;;;;;;;63.97;30.27;;;;;;;2.69;100.00;101515.91;1035557;28;20383;-82
2022/11/14 01:12:57;;;;;;;52.92;29.15;;;;;;;2.63;100.00;101516.50;1041643;28;20374;-82
2022/11/14 01:13:48;;;;;;;67.78;34.05;;;;;;;2.61;100.00;101515.81;1047224;28;20683;-82
2022/11/14 01:14:39;;;;;;;64.28;30.80;;;;;;;2.64;100.00;101517.31;1047812;28;20047;-82
2022/11/14 01:15:29;;;;;;;68.18;33.88;;;;;;;2.65;100.00;101511.91;1034247;28;20149;-82
2022/11/14 01:16:19;;;;;;;62.70;28.40;;;;;;;2.65;100.00;101509.28;1038760;28;20262;-81
2022/11/14 01:17:10;;;;;;;67.78;31.52;;;;;;;2.71;100.00;101513.13;1040318;28;20882;-81
2022/11/14 01:18:00;;;;;;;68.22;30.92;;;;;;;2.71;100.00;101515.75;1042300;28;20449;-82
2022/11/14 01:18:50;;;;;;;62.30;30.25;;;;;;;2.72;100.00;101512.97;1047331;28;20101;-82
2022/11/14 01:19:40;;;;;;;59.53;31.25;;;;;;;2.70;100.00;101514.09;1040040;28;20375;-82
2022/11/14 01:20:30;;;;;;;68.70;32.38;;;;;;;2.68;100.00;101506.34;1039067;28;20291;-82
2022/11/14 01:21:20;;;;;;;58.65;29.73;;;;;;;2.65;100.00;101511.91;1039948;28;20358;-82
2022/11/14 01:22:10;;;;;;;64.05;33.05;;;;;;;2.71;100.00;101506.06;1047101;28;20432;-82
2022/11/14 01:23:00;;;;;;;60.97;30.83;;;;;;;2.72;100.00;101501.63;1045565;28;20362;-82
2022/11/14 01:23:50;;;;;;;62.40;28.40;;;;;;;2.70;100.00;101504.41;1044008;28;20916;-82
2022/11/14 01:24:40;;;;;;;67.07;29.83;;;;;;;2.71;100.00;101494.72;1039612;28;20330;-81
2022/11/14 01:25:32;;;;;;;58.38;29.67;;;;;;;2.76;100.00;101503.84;1046531;28;21156;-81
2022/11/14 01:26:23;;;;;;;65.93;30.60;;;;;;;2.73;100.00;101504.09;1043747;28;20295;-81
2022/11/14 01:27:13;;;;;;;74.78;34.47;;;;;;;2.75;100.00;101507.44;1042716;28;20745;-81
2022/11/14 01:28:12;;;;;;;65.68;31.10;;;;;;;2.74;100.00;101497.06;1039954;28;20808;-81
2022/11/14 01:29:02;;;;;;;65.35;35.15;;;;;;;2.70;100.00;101501.78;1043930;28;20369;-81
2022/11/14 01:29:52;;;;;;;57.60;29.52;;;;;;;2.68;100.00;101505.53;1042789;28;20385;-82
2022/11/14 01:30:42;;;;;;;61.65;32.00;;;;;;;2.64;100.00;101499.75;1044292;28;20306;-81
2022/11/14 01:31:32;;;;;;;64.18;33.88;;;;;;;2.71;100.00;101499.97;1039747;28;20753;-81
2022/11/14 01:32:23;;;;;;;60.13;32.03;;;;;;;2.65;100.00;101496.13;1036437;28;21283;-81
2022/11/14 01:33:13;;;;;;;66.68;30.25;;;;;;;2.70;100.00;101493.06;1039534;28;20363;-82
2022/11/14 01:34:03;;;;;;;58.92;29.67;;;;;;;2.68;100.00;101495.84;1042921;28;20354;-82
2022/11/14 01:34:53;;;;;;;69.47;32.10;;;;;;;2.62;100.00;101491.16;1039146;28;20283;-82
2022/11/14 01:35:43;;;;;;;77.15;33.67;;;;;;;2.65;100.00;101503.19;1036784;28;20310;-83
2022/11/14 01:36:33;;;;;;;66.07;33.70;;;;;;;2.63;100.00;101498.09;1040495;28;20348;-82
2022/11/14 01:37:23;;;;;;;69.10;30.48;;;;;;;2.65;100.00;101490.88;1039474;28;20394;-82
2022/11/14 01:38:14;;;;;;;60.40;30.33;;;;;;;2.60;100.00;101490.50;1042142;28;20481;-82
2022/11/14 01:39:04;;;;;;;75.90;31.92;;;;;;;2.62;100.00;101491.16;1037536;28;20312;-82
2022/11/14 01:39:54;;;;;;;68.50;35.28;;;;;;;2.62;100.00;101488.53;1037299;28;20416;-83
2022/11/14 01:40:46;;;;;;;60.92;30.70;;;;;;;2.64;100.00;101488.41;1043171;28;20290;-82
2022/11/14 01:41:36;;;;;;;69.32;33.38;;;;;;;2.66;100.00;101497.78;1039756;28;20732;-82
2022/11/14 01:42:26;;;;;;;65.45;31.30;;;;;;;2.70;100.00;101490.41;1043647;28;20299;-82
2022/11/14 01:43:16;;;;;;;68.55;31.30;;;;;;;2.69;100.00;101491.41;1038996;28;20284;-82
2022/11/14 01:44:17;;;;;;;70.05;32.80;;;;;;;2.62;100.00;101488.53;1042158;28;20312;-83
2022/11/14 01:45:44;;;;;;;67.88;32.42;;;;;;;2.58;100.00;101484.56;1044412;28;20298;-82
2022/11/14 01:46:38;;;;;;;61.90;27.17;;;;;;;2.62;100.00;101485.91;1041562;28;20618;-83
2022/11/14 01:47:31;;;;;;;64.28;30.73;;;;;;;2.61;100.00;101486.88;1039529;28;20323;-82
2022/11/14 01:48:26;;;;;;;65.57;32.67;;;;;;;2.58;100.00;101484.56;1039636;28;20425;-82
2022/11/14 01:49:24;;;;;;;68.38;30.55;;;;;;;2.60;100.00;101482.59;1033469;28;20655;-83
2022/11/14 01:50:14;;;;;;;57.05;29.33;;;;;;;2.59;100.00;101478.31;1037638;28;20292;-82
2022/11/14 01:51:16;;;;;;;65.38;28.35;;;;;;;2.53;100.00;101476.28;1041267;28;20942;-83
2022/11/14 01:52:11;;;;;;;59.47;31.23;;;;;;;2.52;100.00;101490.41;1041416;28;20094;-83
2022/11/14 01:53:01;;;;;;;59.45;29.67;;;;;;;2.45;100.00;101481.44;1045747;28;20152;-82
2022/11/14 01:53:54;;;;;;;58.92;27.73;;;;;;;2.42;100.00;101479.94;1047654;28;20341;-82
2022/11/14 01:54:48;;;;;;;65.15;32.17;;;;;;;2.39;100.00;101484.66;1047662;28;20822;-82
2022/11/14 01:55:38;;;;;;;63.95;29.08;;;;;;;2.50;100.00;101476.59;1042343;28;20336;-82
2022/11/14 01:56:37;;;;;;;67.50;32.83;;;;;;;2.52;100.00;101479.91;1045465;28;20826;-82
2022/11/14 01:57:31;;;;;;;59.40;30.75;;;;;;;2.50;100.00;101473.97;1039443;28;20721;-82
2022/11/14 01:58:21;;;;;;;62.38;30.75;;;;;;;2.47;100.00;101472.47;1035363;28;20686;-82
2022/11/14 01:59:15;;;;;;;64.95;29.92;;;;;;;2.54;100.00;101464.81;1039558;28;20295;-83
2022/11/14 02:00:09;;;;;;;67.13;31.75;;;;;;;2.51;100.00;101469.53;1039054;28;20413;-82
2022/11/14 02:00:59;;;;;;;62.03;30.30;;;;;;;2.47;100.00;101466.38;1038159;28;20796;-82
2022/11/14 02:01:51;;;;;;;65.55;31.08;;;;;;;2.45;100.00;101469.13;1038651;28;20348;-84
2022/11/14 02:02:42;;;;;;;66.78;32.13;;;;;;;2.43;100.00;101468.44;1047360;28;20771;-83
2022/11/14 02:03:35;;;;;;;74.28;33.75;;;;;;;2.48;100.00;101458.34;1045751;28;20428;-82
2022/11/14 02:04:29;;;;;;;68.45;33.10;;;;;;;2.48;100.00;101462.78;1043661;28;20130;-84
2022/11/14 02:05:19;;;;;;;58.00;30.17;;;;;;;2.39;100.00;101453.94;1043458;28;20351;-82
2022/11/14 02:06:13;;;;;;;61.58;30.17;;;;;;;2.47;100.00;101451.44;1044355;28;20470;-82
2022/11/14 02:07:03;;;;;;;68.47;29.60;;;;;;;2.49;100.00;101459.16;1047576;28;20109;-82
2022/11/14 02:07:54;;;;;;;72.63;33.72;;;;;;;2.40;100.00;101449.50;1039324;28;20355;-82
2022/11/14 02:08:45;;;;;;;66.00;29.92;;;;;;;2.40;100.00;101452.16;1036513;28;20053;-82
2022/11/14 02:09:36;;;;;;;69.93;31.63;;;;;;;2.44;100.00;101461.38;1033549;28;20408;-83
2022/11/14 02:10:26;;;;;;;;;;;;;;;2.41;100.00;101451.16;1039955;28;20128;-83
2022/11/14 02:11:17;;;;;;;59.00;29.27;;;;;;;2.34;100.00;101456.19;1036771;28;20059;-82
2022/11/14 02:12:09;;;;;;;62.80;30.33;;;;;;;2.37;100.00;101455.06;1038568;28;20335;-83
2022/11/14 02:12:59;;;;;;;58.63;29.65;;;;;;;2.33;100.00;101446.66;1043458;28;20902;-83
2022/11/14 02:13:49;;;;;;;67.30;31.30;;;;;;;2.39;100.00;101450.50;1043721;28;20646;-82
2022/11/14 02:14:41;;;;;;;54.78;29.58;;;;;;;2.39;100.00;101446.06;1039341;28;20302;-82
2022/11/14 02:15:31;;;;;;;67.53;30.77;;;;;;;2.34;100.00;101450.13;1040879;28;20508;-82
2022/11/14 02:16:21;;;;;;;65.93;32.75;;;;;;;2.30;100.00;101449.59;1038268;28;20083;-82
2022/11/14 02:17:13;;;;;;;75.32;31.17;;;;;;;2.33;100.00;101448.47;1047261;28;20051;-83
2022/11/14 02:18:19;;;;;;;62.05;29.33;;;;;;;2.35;100.00;101443.88;1042475;28;20341;-83
2022/11/14 02:19:09;;;;;;;73.07;32.38;;;;;;;2.33;100.00;101443.19;1041724;28;20287;-83
2022/11/14 02:20:02;;;;;;;65.88;31.05;;;;;;;2.34;100.00;101439.59;1044789;28;20291;-82
2022/11/14 02:20:54;;;;;;;69.53;33.17;;;;;;;2.33;100.00;101433.50;1043586;28;20463;-82
2022/11/14 02:21:44;;;;;;;59.17;27.52;;;;;;;2.34;100.00;101424.66;1046200;28;20370;-82
2022/11/14 02:22:35;;;;;;;62.22;30.80;;;;;;;2.36;100.00;101427.13;1039207;28;20847;-82
2022/11/14 02:23:27;;;;;;;66.13;32.50;;;;;;;2.38;100.00;101430.44;1046637;28;20336;-82
2022/11/14 02:24:17;;;;;;;67.05;30.33;;;;;;;2.36;100.00;101427.97;1045122;28;20048;-81
2022/11/14 02:25:09;;;;;;;73.82;31.25;;;;;;;2.37;100.00;101428.78;1043423;28;20290;-81
2022/11/14 02:25:59;;;;;;;69.88;32.38;;;;;;;2.28;100.00;101427.06;1037089;28;20299;-81
2022/11/14 02:26:49;;;;;;;66.30;30.55;;;;;;;2.25;100.00;101415.03;1043125;28;20421;-80
2022/11/14 02:27:39;;;;;;;66.28;30.25;;;;;;;2.21;100.00;101411.06;1038635;28;20299;-81
2022/11/14 02:28:30;;;;;;;67.40;31.15;;;;;;;2.25;100.00;101419.47;1039006;28;20291;-81
2022/11/14 02:29:20;;;;;;;59.58;29.88;;;;;;;2.24;100.00;101412.56;1037003;28;20056;-80
2022/11/14 02:30:14;;;;;;;61.15;31.20;;;;;;;2.21;100.00;101412.84;1047360;28;20075;-81
2022/11/14 02:31:04;;;;;;;59.75;28.23;;;;;;;2.20;100.00;101419.09;1047515;28;20357;-81
2022/11/14 02:31:54;;;;;;;62.83;29.75;;;;;;;2.14;100.00;101417.84;1039828;28;20330;-81
2022/11/14 02:32:44;;;;;;;68.80;31.20;;;;;;;2.12;100.00;101410.13;1034002;28;20293;-80
2022/11/14 02:33:54;;;;;;;61.60;29.08;;;;;;;2.09;100.00;101414.84;1035220;28;20794;-81
2022/11/14 02:34:44;;;;;;;66.60;29.15;;;;;;;2.12;100.00;101412.75;1043204;28;20708;-81
2022/11/14 02:35:34;;;;;;;60.88;30.38;;;;;;;2.13;100.00;101406.50;1043721;28;20295;-80
2022/11/14 02:36:24;;;;;;;63.55;30.08;;;;;;;2.11;100.00;101410.25;1041674;28;20779;-81
2022/11/14 02:37:14;;;;;;;57.83;29.15;;;;;;;2.24;100.00;101412.56;1039284;28;20299;-81
2022/11/14 02:38:04;;;;;;;63.63;28.23;;;;;;;2.29;100.00;101415.56;1041390;28;20365;-81
2022/11/14 02:38:54;;;;;;;69.68;32.78;;;;;;;2.22;100.00;101409.25;1041114;28;20888;-81
2022/11/14 02:39:44;;;;;;;59.80;28.80;;;;;;;2.17;100.00;101407.03;1042741;28;20461;-81
2022/11/14 02:40:34;;;;;;;63.00;28.45;;;;;;;2.11;100.00;101405.00;1040448;28;20333;-82
2022/11/14 02:41:24;;;;;;;52.35;27.20;;;;;;;2.11;100.00;101413.72;1037076;28;20375;-81
2022/11/14 02:42:14;;;;;;;65.72;29.92;;;;;;;2.13;100.00;101406.50;1047000;28;20334;-82
2022/11/14 02:43:04;;;;;;;59.70;28.98;;;;;;;2.13;100.00;101405.69;1047573;28;20350;-82
2022/11/14 02:43:54;;;;;;;67.60;28.27;;;;;;;2.10;100.00;101412.06;1047724;28;20896;-81
2022/11/14 02:44:44;;;;;;;66.63;29.90;;;;;;;2.10;100.00;101411.25;1043643;28;20687;-82
2022/11/14 02:45:33;;;;;;;70.43;31.42;;;;;;;2.00;100.00;101411.31;1043116;28;20398;-82
2022/11/14 02:46:23;;;;;;;65.63;30.27;;;;;;;2.03;100.00;101413.63;1041943;28;20346;-82
2022/11/14 02:47:13;;;;;;;61.40;28.17;;;;;;;1.99;100.00;101411.44;1047352;28;20297;-82
2022/11/14 02:48:04;;;;;;;64.63;28.40;;;;;;;2.07;100.00;101412.38;1047482;28;20368;-82
2022/11/14 02:48:54;;;;;;;61.35;28.17;;;;;;;2.05;100.00;101409.06;1041778;28;20048;-81
2022/11/14 02:49:44;;;;;;;62.70;28.80;;;;;;;2.07;100.00;101406.28;1044083;28;20466;-82
2022/11/14 02:50:34;;;;;;;63.95;26.77;;;;;;;2.07;100.00;101407.09;1043547;28;20275;-82
2022/11/14 02:51:26;;;;;;;61.58;30.27;;;;;;;2.14;100.00;101405.53;1046086;28;20326;-82
2022/11/14 02:52:16;;;;;;;70.90;30.88;;;;;;;2.09;100.00;101409.59;1041815;28;20413;-81
2022/11/14 02:53:06;;;;;;;72.00;30.95;;;;;;;2.08;100.00;101408.75;1038568;28;20330;-81
2022/11/14 02:53:56;;;;;;;66.03;29.75;;;;;;;2.07;100.00;101407.09;1041163;28;20364;-81
2022/11/14 02:54:46;;;;;;;70.00;30.70;;;;;;;1.89;100.00;101408.84;1047912;28;20337;-81
2022/11/14 02:55:43;;;;;;;58.55;28.88;;;;;;;1.93;100.00;101410.25;1047469;28;20344;-82
2022/11/14 02:56:33;;;;;;;64.03;25.23;;;;;;;2.03;100.00;101397.88;1043434;28;20287;-82
2022/11/14 02:57:23;;;;;;;78.90;31.40;;;;;;;2.10;100.00;101405.97;1038869;28;20303;-82
2022/11/14 02:58:13;;;;;;;61.00;27.52;;;;;;;2.07;100.00;101406.28;1046470;28;20611;-82
2022/11/14 02:59:04;;;;;;;63.58;26.48;;;;;;;2.08;100.00;101394.78;1045772;28;20317;-81
2022/11/14 02:59:54;;;;;;;63.88;28.40;;;;;;;2.04;100.00;101407.41;1035579;28;20513;-81
2022/11/14 03:00:44;;;;;;;67.45;30.75;;;;;;;2.04;100.00;101402.16;1038948;28;20393;-81
2022/11/14 03:01:54;;;;;;;62.10;27.67;;;;;;;2.11;100.00;101399.75;1039345;28;20319;-81
2022/11/14 03:02:45;;;;;;;60.78;29.10;;;;;;;2.14;100.00;101410.78;1035416;28;20279;-81
2022/11/14 03:03:35;;;;;;;66.88;27.92;;;;;;;2.06;100.00;101405.44;1037186;28;20332;-81
2022/11/14 03:04:25;;;;;;;59.22;27.13;;;;;;;2.02;100.00;101409.34;1037164;28;20645;-81
2022/11/14 03:05:15;;;;;;;59.13;28.60;;;;;;;2.06;100.00;101404.63;1046346;28;20310;-82
2022/11/14 03:06:05;;;;;;;66.70;30.85;;;;;;;2.04;100.00;101401.31;1041711;28;20578;-82
2022/11/14 03:06:55;;;;;;;60.90;26.67;;;;;;;2.04;100.00;101396.06;1039003;28;20407;-82
2022/11/14 03:07:46;;;;;;;71.13;29.92;;;;;;;2.03;100.00;101405.75;1042114;28;20299;-82
2022/11/14 03:08:36;;;;;;;70.75;30.63;;;;;;;2.12;100.00;101401.41;1037746;28;20935;-82
2022/11/14 03:09:25;;;;;;;67.20;29.10;;;;;;;2.15;100.00;101401.94;1040974;28;20642;-82
2022/11/14 03:10:16;;;;;;;65.85;29.33;;;;;;;2.09;100.00;101404.34;1042760;28;20294;-82
2022/11/14 03:11:07;;;;;;;68.15;28.98;;;;;;;2.13;100.00;101401.25;1039952;28;20279;-82
2022/11/14 03:11:57;;;;;;;60.85;29.23;;;;;;;2.22;100.00;101398.75;1047166;28;20091;-81
2022/11/14 03:12:52;;;;;;;60.20;28.52;;;;;;;2.14;100.00;101400.28;1047734;28;20716;-82
2022/11/14 03:13:42;;;;;;;61.33;27.90;;;;;;;2.10;100.00;101398.94;1043401;28;20719;-81
2022/11/14 03:14:32;;;;;;;54.72;25.52;;;;;;;2.10;100.00;101398.09;1035024;28;20471;-81
2022/11/14 03:15:23;;;;;;;63.42;28.33;;;;;;;2.05;100.00;101395.91;1038738;28;20362;-82
2022/11/14 03:16:13;;;;;;;58.22;28.63;;;;;;;2.03;100.00;101397.03;1038938;28;20303;-81
2022/11/14 03:17:03;;;;;;;57.88;28.30;;;;;;;2.02;100.00;101392.75;1038402;28;20060;-82
2022/11/14 03:17:53;;;;;;;55.42;28.75;;;;;;;2.04;100.00;101396.06;1037467;28;20367;-80
2022/11/14 03:18:43;;;;;;;65.90;28.98;;;;;;;2.09;100.00;101396.44;1044923;28;20349;-81
2022/11/14 03:19:33;;;;;;;63.35;29.52;;;;;;;2.14;100.00;101387.13;1043699;28;20298;-81
2022/11/14 03:20:23;;;;;;;66.88;29.17;;;;;;;2.13;100.00;101385.50;1046434;28;20632;-82
2022/11/14 03:21:16;;;;;;;60.35;28.40;;;;;;;2.15;100.00;101378.28;1047306;28;20836;-82
2022/11/14 03:22:06;;;;;;;66.53;28.85;;;;;;;2.11;100.00;101392.69;1047618;28;20376;-82
2022/11/14 03:22:56;;;;;;;63.80;28.30;;;;;;;2.05;100.00;101387.22;1042842;28;20321;-81
2022/11/14 03:23:46;;;;;;;59.75;29.08;;;;;;;2.00;100.00;101390.28;1046741;28;20779;-82
2022/11/14 03:24:36;;;;;;;66.07;27.83;;;;;;;1.96;100.00;101378.41;1035288;28;20655;-81
2022/11/14 03:25:26;;;;;;;67.68;28.80;;;;;;;2.00;100.00;101385.03;1034594;28;20292;-82
2022/11/14 03:26:16;;;;;;;54.67;28.40;;;;;;;1.99;100.00;101380.75;1041945;28;20291;-82
2022/11/14 03:27:06;;;;;;;59.97;27.48;;;;;;;1.98;100.00;101379.09;1043012;28;20328;-82
2022/11/14 03:27:56;;;;;;;49.70;27.33;;;;;;;1.92;100.00;101381.47;1038753;28;20283;-81
2022/11/14 03:28:46;;;;;;;61.00;25.80;;;;;;;1.77;100.00;101381.97;1045362;28;20698;-81
2022/11/14 03:29:36;;;;;;;52.90;26.25;;;;;;;1.77;100.00;101378.50;1043291;28;20283;-81
2022/11/14 03:30:26;;;;;;;70.13;30.92;;;;;;;1.85;100.00;101378.59;1047330;28;20868;-81
2022/11/14 03:31:16;;;;;;;66.60;26.00;;;;;;;1.88;100.00;101383.56;1046906;28;20645;-81
2022/11/14 03:32:06;;;;;;;71.47;27.92;;;;;;;1.81;100.00;101380.69;1041804;28;20287;-82
2022/11/14 03:32:56;;;;;;;57.92;25.95;;;;;;;1.68;100.00;101377.59;1043238;28;20287;-82
2022/11/14 03:33:46;;;;;;;57.03;25.52;;;;;;;1.62;100.00;101379.94;1046987;28;20357;-81
2022/11/14 03:34:36;;;;;;;58.55;27.02;;;;;;;1.59;100.00;101380.25;1039243;28;20731;-82
2022/11/14 03:35:27;;;;;;;48.45;25.83;;;;;;;1.59;100.00;101375.00;1036485;28;20328;-82
2022/11/14 03:36:17;;;;;;;66.15;29.00;;;;;;;1.69;100.00;101381.03;1042811;28;20052;-81
2022/11/14 03:37:08;;;;;;;57.00;26.63;;;;;;;1.70;100.00;101380.06;1043384;28;20287;-81
2022/11/14 03:37:58;;;;;;;63.03;26.70;;;;;;;1.73;100.00;101377.97;1043236;28;20875;-82
2022/11/14 03:38:48;;;;;;;66.65;29.05;;;;;;;1.72;100.00;101380.75;1044789;28;20537;-82
2022/11/14 03:39:38;;;;;;;55.08;26.90;;;;;;;1.70;100.00;101374.81;1044052;28;20306;-82
2022/11/14 03:40:28;;;;;;;59.17;27.27;;;;;;;1.64;100.00;101373.56;1039318;28;20291;-82
2022/11/14 03:41:18;;;;;;;55.55;24.48;;;;;;;1.53;100.00;101371.97;1037374;28;20311;-81
2022/11/14 03:42:08;;;;;;;65.38;26.73;;;;;;;1.50;100.00;101372.25;1041896;28;20362;-82
2022/11/14 03:42:59;;;;;;;56.05;24.58;;;;;;;1.49;100.00;101378.50;1042564;28;20337;-82
2022/11/14 03:43:49;;;;;;;61.78;28.98;;;;;;;1.61;100.00;101378.28;1043292;28;20075;-82
2022/11/14 03:44:39;;;;;;;51.60;26.63;;;;;;;1.63;100.00;101379.81;1046368;28;20306;-82
2022/11/14 03:45:29;;;;;;;56.90;24.55;;;;;;;1.57;100.00;101374.31;1044001;28;21161;-82
2022/11/14 03:46:19;;;;;;;50.40;23.80;;;;;;;1.53;100.00;101379.84;1045514;28;20800;-83
2022/11/14 03:47:10;;;;;;;52.13;26.92;;;;;;;1.51;100.00;101379.16;1042777;28;20310;-81
2022/11/14 03:48:00;;;;;;;63.10;25.80;;;;;;;1.47;100.00;101388.31;1046433;28;20277;-81
2022/11/14 03:48:50;;;;;;;58.13;27.52;;;;;;;1.47;100.00;101388.31;1039241;28;20312;-82
2022/11/14 03:49:40;;;;;;;58.10;30.17;;;;;;;1.45;100.00;101384.16;1042975;28;20342;-81
2022/11/14 03:50:30;;;;;;;49.40;25.90;;;;;;;1.41;100.00;101377.56;1042782;28;20286;-82
2022/11/14 03:51:20;;;;;;;50.45;24.17;;;;;;;1.40;100.00;101381.97;1045860;28;20318;-81
2022/11/14 03:52:11;;;;;;;53.70;26.27;;;;;;;1.35;100.00;101378.09;1043292;28;20299;-81